EGSX weather

North Weald Airport
North Weald Bassett, England, United Kingdom

Public forecast

Using degrees Celsius for public forecast. Weather courtesy of forecast.io.

METAR (pilot weather report)

Closest report is London Stansted Airport, 10.3 nm (19.0 km) NNE. Retrieved 2019/04/22 13:20 UTC (15 minutes ago):

EGSS 221320Z AUTO 10013KT 9999 NCD 23/06 Q1005

TAF (pilot weather forecast)

Closest forecast is London Stansted Airport, 10.3 nm (19.0 km) NNE. Retrieved 2019/04/22 12:00 UTC (2 hours ago):

TAF EGSS 221056Z 2212/2318 11010KT CAVOK BECMG 2221/2224 VRB03KT TEMPO 2302/2308 8000 BECMG 2306/2309 08010KT